Time;durP1;ratioP1;P1;durP2;ratioP2;P2;SDS_P1;SDS_P2;PMS_P1;PMS_P2;Temp;Humidity;BMP_temperature;BMP_pressure;BME280_temperature;BME280_humidity;BME280_pressure;Samples;Min_cycle;Max_cycle;Signal;HPM_P1;HPM_P2
2021/06/07 00:00:56;;;;;;;4.55;2.08;;;18.00;52.80;;;;;;4959079;28;20028;-77
2021/06/07 00:03:22;;;;;;;5.20;2.90;;;18.00;52.40;;;;;;4959733;28;20585;-77
2021/06/07 00:05:48;;;;;;;5.25;2.63;;;18.00;52.80;;;;;;4955123;29;20054;-77
2021/06/07 00:08:14;;;;;;;4.93;3.08;;;17.90;54.90;;;;;;4946310;28;20031;-77
2021/06/07 00:10:40;;;;;;;9.55;3.55;;;17.90;57.20;;;;;;4958473;28;20066;-77
2021/06/07 00:13:06;;;;;;;6.45;3.13;;;17.80;58.40;;;;;;4959464;28;20030;-77
2021/06/07 00:15:34;;;;;;;6.28;3.10;;;17.80;59.00;;;;;;4959222;29;20481;-77
2021/06/07 00:18:02;;;;;;;5.50;2.97;;;17.80;58.80;;;;;;4959550;28;20043;-77
2021/06/07 00:20:40;;;;;;;8.23;4.65;;;17.80;58.40;;;;;;4959229;28;20032;-77
2021/06/07 00:23:09;;;;;;;5.35;3.20;;;17.70;59.90;;;;;;4956205;29;20031;-77
2021/06/07 00:25:36;;;;;;;6.45;3.20;;;17.70;58.50;;;;;;4958441;28;20584;-77
2021/06/07 00:28:03;;;;;;;6.20;3.10;;;17.60;59.40;;;;;;4958785;28;20532;-78
2021/06/07 00:30:29;;;;;;;5.53;3.20;;;17.60;58.80;;;;;;4958745;28;20041;-77
2021/06/07 00:32:55;;;;;;;4.43;2.95;;;17.60;60.00;;;;;;4959118;28;20035;-77
2021/06/07 00:35:26;;;;;;;5.90;3.38;;;17.50;59.10;;;;;;4959199;28;20082;-77
2021/06/07 00:37:52;;;;;;;5.30;3.47;;;17.40;60.20;;;;;;4958796;28;20114;-77
2021/06/07 00:40:22;;;;;;;6.30;3.45;;;17.40;58.60;;;;;;4958859;28;20048;-78
2021/06/07 00:42:49;;;;;;;6.72;3.15;;;17.40;57.80;;;;;;4958151;29;20057;-78
2021/06/07 00:45:19;;;;;;;7.05;4.53;;;17.40;59.00;;;;;;4959085;28;20114;-77
2021/06/07 00:47:45;;;;;;;7.78;3.42;;;17.40;59.40;;;;;;4958557;28;20034;-78
2021/06/07 00:50:16;;;;;;;7.22;4.63;;;17.30;60.20;;;;;;4956910;29;20031;-78
2021/06/07 00:53:00;;;;;;;6.45;3.78;;;17.30;60.50;;;;;;4958428;28;20081;-78
2021/06/07 00:55:27;;;;;;;5.07;3.40;;;17.30;60.70;;;;;;4958336;28;20560;-79
2021/06/07 00:57:54;;;;;;;6.75;3.63;;;17.20;58.60;;;;;;4959088;28;20478;-79
2021/06/07 01:00:21;;;;;;;6.13;3.30;;;17.20;59.10;;;;;;4958486;28;20028;-79
2021/06/07 01:02:48;;;;;;;6.93;3.53;;;17.20;59.30;;;;;;4958808;28;20027;-79
2021/06/07 01:05:14;;;;;;;5.47;3.00;;;17.20;58.20;;;;;;4958916;28;20059;-79
2021/06/07 01:07:40;;;;;;;4.47;2.95;;;17.20;56.90;;;;;;4959228;28;20031;-79
2021/06/07 01:10:08;;;;;;;7.63;4.30;;;17.20;57.20;;;;;;4958225;29;20039;-79
2021/06/07 01:12:34;;;;;;;7.07;3.90;;;17.20;61.20;;;;;;4961914;28;20037;-79
2021/06/07 01:15:00;;;;;;;7.38;4.07;;;17.10;61.00;;;;;;4962796;28;20035;-79
2021/06/07 01:17:27;;;;;;;9.52;4.15;;;17.10;60.80;;;;;;4962725;29;20103;-78
2021/06/07 01:19:54;;;;;;;5.40;3.95;;;17.00;60.50;;;;;;4958721;29;20035;-78
2021/06/07 01:22:20;;;;;;;5.35;3.53;;;17.00;61.10;;;;;;4962241;28;20023;-78
2021/06/07 01:24:46;;;;;;;5.30;3.50;;;17.00;60.10;;;;;;4955728;28;20611;-79
2021/06/07 01:27:12;;;;;;;8.82;4.22;;;16.90;60.10;;;;;;4955775;29;20550;-79
2021/06/07 01:29:38;;;;;;;8.73;3.67;;;16.90;61.10;;;;;;4956713;29;20163;-78
2021/06/07 01:32:05;;;;;;;8.52;4.18;;;16.90;61.30;;;;;;4962193;29;20514;-79
2021/06/07 01:34:32;;;;;;;8.73;4.05;;;16.90;60.50;;;;;;4962146;28;20114;-79
2021/06/07 01:36:58;;;;;;;7.22;3.95;;;16.80;60.10;;;;;;4962025;28;20023;-77
2021/06/07 01:39:27;;;;;;;6.18;3.15;;;16.80;59.50;;;;;;4961948;28;20139;-78
2021/06/07 01:41:56;;;;;;;6.55;4.00;;;16.80;58.80;;;;;;4961711;28;20030;-77
2021/06/07 01:44:23;;;;;;;6.95;4.20;;;16.80;59.90;;;;;;4961956;28;20027;-78
2021/06/07 01:46:49;;;;;;;6.78;4.07;;;16.70;61.00;;;;;;4961407;28;20469;-77
2021/06/07 01:49:15;;;;;;;7.28;4.22;;;16.70;60.40;;;;;;4959370;29;20413;-78
2021/06/07 01:51:41;;;;;;;5.30;3.53;;;16.70;59.10;;;;;;4961203;28;20034;-78
2021/06/07 01:54:07;;;;;;;6.28;3.33;;;16.70;57.80;;;;;;4961117;29;20039;-78
2021/06/07 01:56:35;;;;;;;6.40;3.55;;;16.70;57.10;;;;;;4960642;29;20082;-79
2021/06/07 01:59:01;;;;;;;6.40;3.53;;;16.70;57.50;;;;;;4962011;28;20023;-79
2021/06/07 02:01:28;;;;;;;6.35;3.50;;;16.60;56.50;;;;;;4961489;28;20490;-79
2021/06/07 02:03:54;;;;;;;5.75;3.28;;;16.70;56.10;;;;;;4961730;28;20551;-78
2021/06/07 02:06:25;;;;;;;5.10;3.60;;;16.60;55.80;;;;;;4961741;28;20020;-78
2021/06/07 02:08:55;;;;;;;4.70;3.17;;;16.60;55.60;;;;;;4961228;28;20055;-78
2021/06/07 02:11:29;;;;;;;7.57;3.30;;;16.60;55.60;;;;;;4961531;28;20062;-79
2021/06/07 02:13:58;;;;;;;6.95;3.60;;;16.50;58.80;;;;;;4961676;28;20114;-78
2021/06/07 02:16:29;;;;;;;5.78;3.72;;;16.50;58.60;;;;;;4961405;28;20024;-78
2021/06/07 02:18:54;;;;;;;7.90;4.03;;;16.50;59.10;;;;;;4961525;28;20438;-79
2021/06/07 02:21:23;;;;;;;6.55;4.22;;;16.40;60.60;;;;;;4961367;29;20027;-78
2021/06/07 02:23:51;;;;;;;9.05;4.63;;;16.40;61.60;;;;;;4960622;28;20421;-79
2021/06/07 02:26:18;;;;;;;7.55;4.60;;;16.40;63.30;;;;;;4961107;29;20031;-79
2021/06/07 02:28:50;;;;;;;6.65;5.00;;;16.30;63.90;;;;;;4961385;28;20489;-79
2021/06/07 02:31:18;;;;;;;6.97;4.10;;;16.30;62.90;;;;;;4955430;29;20038;-79
2021/06/07 02:33:46;;;;;;;8.38;4.63;;;16.30;62.20;;;;;;4961100;28;20238;-79
2021/06/07 02:36:12;;;;;;;9.88;5.20;;;16.30;62.10;;;;;;4960543;28;20027;-79
2021/06/07 02:38:38;;;;;;;8.90;5.43;;;16.20;64.40;;;;;;4947631;28;20028;-78
2021/06/07 02:41:04;;;;;;;10.88;5.78;;;16.20;64.00;;;;;;4960804;28;20039;-79
2021/06/07 02:43:30;;;;;;;10.18;5.68;;;16.10;63.30;;;;;;4960925;28;20433;-79
2021/06/07 02:45:55;;;;;;;10.80;5.65;;;16.10;64.90;;;;;;4961263;28;20051;-78
2021/06/07 02:48:21;;;;;;;11.05;5.70;;;16.10;65.10;;;;;;4958120;29;22359;-78
2021/06/07 02:50:48;;;;;;;10.38;5.68;;;16.10;63.10;;;;;;4960978;29;20027;-78
2021/06/07 02:53:16;;;;;;;15.40;6.75;;;16.00;65.40;;;;;;4960286;28;20038;-79
2021/06/07 02:55:53;;;;;;;13.50;7.07;;;16.00;63.40;;;;;;4953098;29;20035;-79
2021/06/07 02:58:21;;;;;;;10.55;6.55;;;16.10;63.70;;;;;;4960438;28;20035;-79
2021/06/07 03:00:59;;;;;;;12.05;6.25;;;16.10;62.00;;;;;;4960506;28;20429;-79
2021/06/07 03:03:26;;;;;;;14.82;7.45;;;16.10;61.40;;;;;;4941473;29;20036;-79
2021/06/07 03:05:54;;;;;;;17.00;8.10;;;16.20;62.50;;;;;;4958798;29;20055;-79
2021/06/07 03:08:22;;;;;;;24.17;9.48;;;16.20;62.00;;;;;;4960009;28;20110;-79
2021/06/07 03:10:52;;;;;;;14.23;8.20;;;16.30;64.80;;;;;;4960527;28;20397;-78
2021/06/07 03:13:19;;;;;;;18.05;8.35;;;16.30;64.00;;;;;;4960103;29;20041;-78
2021/06/07 03:15:45;;;;;;;13.45;7.20;;;16.30;62.50;;;;;;4960559;28;20031;-79
2021/06/07 03:18:11;;;;;;;10.85;6.97;;;16.30;63.10;;;;;;4956862;28;20027;-79
2021/06/07 03:20:38;;;;;;;13.05;7.82;;;16.40;63.50;;;;;;4940241;29;20027;-79
2021/06/07 03:23:25;;;;;;;12.77;7.45;;;16.30;62.70;;;;;;4950987;29;20449;-78
2021/06/07 03:25:52;;;;;;;13.80;7.15;;;16.40;62.70;;;;;;4960165;28;20024;-78
2021/06/07 03:28:19;;;;;;;10.77;6.85;;;16.40;61.90;;;;;;4959669;28;20042;-79
2021/06/07 03:30:46;;;;;;;11.95;6.70;;;16.40;63.10;;;;;;4944051;28;20024;-79
2021/06/07 03:33:12;;;;;;;13.82;8.07;;;16.40;62.60;;;;;;4958933;29;20042;-78
2021/06/07 03:35:42;;;;;;;10.40;6.63;;;16.40;63.60;;;;;;4959172;28;20028;-78
2021/06/07 03:38:08;;;;;;;9.75;6.97;;;16.40;62.90;;;;;;4959816;28;20019;-78
2021/06/07 03:40:37;;;;;;;10.55;6.50;;;16.50;64.00;;;;;;4959696;28;20069;-79
2021/06/07 03:43:05;;;;;;;9.38;5.80;;;16.40;62.40;;;;;;4959736;28;20031;-79
2021/06/07 03:45:31;;;;;;;8.95;5.45;;;16.50;62.40;;;;;;4958360;29;20069;-78
2021/06/07 03:47:57;;;;;;;12.30;6.10;;;16.40;61.90;;;;;;4958650;28;20110;-78
2021/06/07 03:50:25;;;;;;;10.55;5.78;;;16.40;61.50;;;;;;4958056;29;20074;-78
2021/06/07 03:52:51;;;;;;;10.35;5.80;;;16.50;62.20;;;;;;4956327;28;20031;-78
2021/06/07 03:55:20;;;;;;;9.07;6.20;;;16.50;61.90;;;;;;4958510;28;20043;-78
2021/06/07 03:57:46;;;;;;;9.02;5.55;;;16.50;62.00;;;;;;4959407;28;20030;-78
2021/06/07 04:00:15;;;;;;;11.05;7.05;;;16.50;62.00;;;;;;4959336;28;20023;-79
2021/06/07 04:02:42;;;;;;;8.68;6.00;;;16.50;62.70;;;;;;4959400;28;20394;-78
2021/06/07 04:05:09;;;;;;;8.43;5.68;;;16.50;63.80;;;;;;4958909;28;20453;-78
2021/06/07 04:07:36;;;;;;;8.85;6.15;;;16.50;62.50;;;;;;4959384;28;20055;-79
2021/06/07 04:10:08;;;;;;;13.10;6.05;;;16.50;62.20;;;;;;4959242;28;20390;-78
2021/06/07 04:12:34;;;;;;;8.93;5.80;;;16.50;62.50;;;;;;4959119;28;20094;-79
2021/06/07 04:15:01;;;;;;;10.10;6.10;;;16.50;62.50;;;;;;4959672;28;20042;-78
2021/06/07 04:17:27;;;;;;;8.75;6.63;;;16.50;64.40;;;;;;4959550;28;20075;-78
2021/06/07 04:19:52;;;;;;;9.00;5.55;;;16.50;63.10;;;;;;4959580;29;20509;-79
2021/06/07 04:22:18;;;;;;;8.73;6.35;;;16.50;63.20;;;;;;4958855;28;20027;-79
2021/06/07 04:24:45;;;;;;;8.57;6.13;;;16.50;63.40;;;;;;4959062;28;20035;-79
2021/06/07 04:27:13;;;;;;;9.73;6.10;;;16.50;62.40;;;;;;4959198;28;20435;-79
2021/06/07 04:29:40;;;;;;;8.50;5.53;;;16.50;62.40;;;;;;4959357;28;20043;-79
2021/06/07 04:32:07;;;;;;;9.05;5.63;;;16.50;62.20;;;;;;4958688;28;20039;-79
2021/06/07 04:34:33;;;;;;;8.07;5.55;;;16.50;62.30;;;;;;4950772;28;20513;-79
2021/06/07 04:36:59;;;;;;;10.30;6.10;;;16.50;62.40;;;;;;4954411;29;20035;-79
2021/06/07 04:39:25;;;;;;;8.82;5.68;;;16.50;62.30;;;;;;4959043;28;20035;-79
2021/06/07 04:41:51;;;;;;;9.88;5.95;;;16.50;62.60;;;;;;4958860;28;20102;-79
2021/06/07 04:44:17;;;;;;;11.48;7.15;;;16.60;64.20;;;;;;4958006;29;20038;-79
2021/06/07 04:46:43;;;;;;;9.98;6.57;;;16.60;63.10;;;;;;4958733;28;20027;-79
2021/06/07 04:49:09;;;;;;;9.93;6.80;;;16.60;63.10;;;;;;4956090;28;20034;-79
2021/06/07 04:51:35;;;;;;;10.38;6.72;;;16.60;63.20;;;;;;4959064;28;20019;-79
2021/06/07 04:54:01;;;;;;;8.23;5.70;;;16.60;62.90;;;;;;4958145;28;20039;-78
2021/06/07 04:56:27;;;;;;;11.38;6.45;;;16.60;62.70;;;;;;4958710;28;20015;-79
2021/06/07 04:58:52;;;;;;;11.25;6.50;;;16.60;62.30;;;;;;4959030;28;20036;-79
2021/06/07 05:01:18;;;;;;;9.88;6.72;;;16.60;61.90;;;;;;4957084;29;20445;-79
2021/06/07 05:03:44;;;;;;;9.15;6.32;;;16.60;62.40;;;;;;4938561;29;20499;-79
2021/06/07 05:06:10;;;;;;;10.55;6.97;;;16.60;63.00;;;;;;4957818;28;20027;-79
2021/06/07 05:08:36;;;;;;;9.55;6.68;;;16.60;62.80;;;;;;4946273;28;20058;-79
2021/06/07 05:11:02;;;;;;;10.52;7.03;;;16.60;62.80;;;;;;4957826;29;20027;-79
2021/06/07 05:13:29;;;;;;;11.43;7.25;;;16.60;63.10;;;;;;4958627;28;20118;-79
2021/06/07 05:15:56;;;;;;;10.57;6.65;;;16.70;62.60;;;;;;4958508;28;20090;-79
2021/06/07 05:18:22;;;;;;;9.38;5.90;;;16.70;62.60;;;;;;4951196;28;20110;-79
2021/06/07 05:20:48;;;;;;;8.57;5.72;;;16.70;62.50;;;;;;4958299;28;20059;-79
2021/06/07 05:23:14;;;;;;;11.63;7.10;;;16.70;62.60;;;;;;4958202;29;20489;-79
2021/06/07 05:25:42;;;;;;;10.02;6.70;;;16.70;63.50;;;;;;4957691;28;20042;-79
2021/06/07 05:28:11;;;;;;;11.43;7.45;;;16.80;63.90;;;;;;4958765;28;20038;-79
2021/06/07 05:30:39;;;;;;;11.52;7.15;;;16.80;64.40;;;;;;4959125;28;20023;-80
2021/06/07 05:33:06;;;;;;;10.48;6.45;;;16.80;64.40;;;;;;4958542;28;20564;-79
2021/06/07 05:35:34;;;;;;;10.95;6.78;;;16.80;63.70;;;;;;4958629;28;20035;-80
2021/06/07 05:38:00;;;;;;;9.73;7.15;;;16.80;63.60;;;;;;4958249;28;20024;-79
2021/06/07 05:40:29;;;;;;;11.07;6.65;;;16.80;63.70;;;;;;4958514;28;20066;-79
2021/06/07 05:42:55;;;;;;;10.40;6.40;;;16.80;64.70;;;;;;4957896;28;20038;-79
2021/06/07 05:45:21;;;;;;;11.05;7.68;;;16.90;67.10;;;;;;4958359;28;20023;-79
2021/06/07 05:47:48;;;;;;;9.32;7.13;;;16.90;64.40;;;;;;4958687;28;20122;-79
2021/06/07 05:50:18;;;;;;;9.85;6.25;;;16.90;65.00;;;;;;4955212;28;20062;-79
2021/06/07 05:52:47;;;;;;;10.60;6.82;;;16.90;65.20;;;;;;4958472;28;20062;-79
2021/06/07 05:55:22;;;;;;;10.35;6.95;;;17.00;65.30;;;;;;4956736;29;20534;-79
2021/06/07 05:57:49;;;;;;;8.77;6.65;;;17.00;64.60;;;;;;4958758;28;20047;-79
2021/06/07 06:00:18;;;;;;;9.70;5.93;;;17.10;64.60;;;;;;4961412;28;20035;-79
2021/06/07 06:02:44;;;;;;;9.80;6.47;;;17.10;64.80;;;;;;4962320;28;20050;-79
2021/06/07 06:05:11;;;;;;;10.07;7.13;;;17.20;67.80;;;;;;4961718;28;20047;-78
2021/06/07 06:07:37;;;;;;;10.70;6.72;;;17.20;65.60;;;;;;4961926;28;20025;-79
2021/06/07 06:10:04;;;;;;;9.80;7.32;;;17.20;65.20;;;;;;4961414;28;20062;-79
2021/06/07 06:12:30;;;;;;;9.52;6.57;;;17.30;65.10;;;;;;4961517;28;20179;-78
2021/06/07 06:14:56;;;;;;;10.70;6.45;;;17.40;64.70;;;;;;4961297;28;20036;-78
2021/06/07 06:17:22;;;;;;;9.95;7.90;;;17.40;64.90;;;;;;4961795;28;20015;-78
2021/06/07 06:19:48;;;;;;;10.90;6.93;;;17.50;64.90;;;;;;4961373;28;20094;-78
2021/06/07 06:22:15;;;;;;;11.27;6.85;;;17.50;65.90;;;;;;4961720;28;20027;-78
2021/06/07 06:24:41;;;;;;;9.68;6.50;;;17.60;65.30;;;;;;4960541;28;20043;-77
2021/06/07 06:27:08;;;;;;;10.52;6.72;;;17.60;64.90;;;;;;4961171;28;20033;-79
2021/06/07 06:29:35;;;;;;;10.73;6.70;;;17.60;65.20;;;;;;4961141;28;20514;-78
2021/06/07 06:32:03;;;;;;;9.35;5.93;;;17.70;65.00;;;;;;4961610;28;20031;-79
2021/06/07 06:34:29;;;;;;;9.45;5.95;;;17.70;65.00;;;;;;4952655;29;20031;-78
2021/06/07 06:36:55;;;;;;;8.95;6.72;;;17.80;66.00;;;;;;4961155;29;20040;-78
2021/06/07 06:39:20;;;;;;;10.45;6.45;;;17.80;65.70;;;;;;4960120;28;20035;-77
2021/06/07 06:41:46;;;;;;;10.05;7.18;;;17.90;65.70;;;;;;4960958;28;20042;-78
2021/06/07 06:44:12;;;;;;;10.02;6.68;;;18.10;66.20;;;;;;4960944;28;20089;-77
2021/06/07 06:46:38;;;;;;;7.85;6.25;;;18.20;66.20;;;;;;4960889;28;20038;-78
2021/06/07 06:49:04;;;;;;;9.73;7.00;;;18.30;66.60;;;;;;4959269;28;20158;-79
2021/06/07 06:51:31;;;;;;;8.25;5.97;;;18.30;65.80;;;;;;4949674;28;20031;-79
2021/06/07 06:53:57;;;;;;;10.57;7.78;;;18.40;65.80;;;;;;4960054;28;20039;-79
2021/06/07 06:56:23;;;;;;;8.63;6.20;;;18.40;65.80;;;;;;4959048;28;20026;-79
2021/06/07 06:58:49;;;;;;;8.23;5.85;;;18.60;66.10;;;;;;4950936;29;20082;-78
2021/06/07 07:01:16;;;;;;;9.13;6.28;;;18.70;66.40;;;;;;4959639;28;20034;-79
2021/06/07 07:03:42;;;;;;;9.20;6.20;;;18.90;66.30;;;;;;4960190;28;20027;-79
2021/06/07 07:06:07;;;;;;;8.95;5.95;;;19.00;66.40;;;;;;4959626;28;20122;-78
2021/06/07 07:08:33;;;;;;;8.10;5.97;;;19.20;66.60;;;;;;4941173;28;20035;-79
2021/06/07 07:10:59;;;;;;;7.97;5.18;;;19.50;67.10;;;;;;4955910;29;20035;-79
2021/06/07 07:13:25;;;;;;;8.68;5.05;;;19.90;67.40;;;;;;4960144;28;20587;-78
2021/06/07 07:15:51;;;;;;;7.63;5.25;;;20.10;66.80;;;;;;4959393;28;20113;-78
2021/06/07 07:18:17;;;;;;;7.20;5.05;;;20.40;66.30;;;;;;4958629;29;20394;-78
2021/06/07 07:20:43;;;;;;;7.07;5.07;;;20.50;65.80;;;;;;4956086;28;20032;-76
2021/06/07 07:23:10;;;;;;;9.32;5.60;;;20.60;65.30;;;;;;4951106;29;20028;-76
2021/06/07 07:25:37;;;;;;;8.23;5.00;;;20.70;64.90;;;;;;4958413;29;20074;-76
2021/06/07 07:28:05;;;;;;;7.05;4.80;;;20.80;64.50;;;;;;4956495;29;20027;-78
2021/06/07 07:30:31;;;;;;;7.28;4.90;;;20.90;64.50;;;;;;4959214;28;20028;-75
2021/06/07 07:32:58;;;;;;;8.00;5.43;;;21.20;65.60;;;;;;4958501;28;20390;-72
2021/06/07 07:35:25;;;;;;;8.82;5.35;;;21.50;65.90;;;;;;4958307;29;20027;-73
2021/06/07 07:37:52;;;;;;;6.30;5.03;;;21.70;65.00;;;;;;4959431;28;20390;-73
2021/06/07 07:40:20;;;;;;;7.13;4.32;;;22.00;65.20;;;;;;4951896;28;20066;-72
2021/06/07 07:42:48;;;;;;;6.63;4.35;;;22.20;65.00;;;;;;4955621;29;20062;-73
2021/06/07 07:45:17;;;;;;;7.75;4.30;;;22.40;63.00;;;;;;4959287;29;20110;-73
2021/06/07 07:47:43;;;;;;;6.90;4.28;;;22.60;63.30;;;;;;4958520;28;20035;-74
2021/06/07 07:50:16;;;;;;;5.22;3.35;;;22.80;64.40;;;;;;4951809;28;20026;-76
2021/06/07 07:52:42;;;;;;;4.93;3.50;;;23.30;63.90;;;;;;4959652;28;20367;-77
2021/06/07 07:55:10;;;;;;;6.03;4.35;;;23.70;62.40;;;;;;4957263;29;20074;-74
2021/06/07 07:57:37;;;;;;;5.60;3.72;;;24.00;61.10;;;;;;4959574;28;20019;-75
2021/06/07 08:00:12;;;;;;;5.15;3.80;;;24.10;60.90;;;;;;4958890;28;20031;-72
2021/06/07 08:02:38;;;;;;;5.05;3.72;;;24.20;60.70;;;;;;4959122;28;20030;-73
2021/06/07 08:05:05;;;;;;;5.35;4.18;;;24.30;60.20;;;;;;4958602;28;20028;-74
2021/06/07 08:07:31;;;;;;;6.35;3.85;;;24.40;59.80;;;;;;4958563;28;20027;-79
2021/06/07 08:09:57;;;;;;;28.42;25.33;;;24.40;60.00;;;;;;4958312;28;20038;-77
2021/06/07 08:12:23;;;;;;;9.35;7.55;;;24.70;61.00;;;;;;4958997;28;20034;-76
2021/06/07 08:14:49;;;;;;;6.07;4.00;;;25.00;61.20;;;;;;4957457;28;20051;-74
2021/06/07 08:17:16;;;;;;;5.38;4.20;;;25.40;60.70;;;;;;4953636;29;20070;-75
2021/06/07 08:19:42;;;;;;;6.65;4.93;;;25.90;58.10;;;;;;4958242;28;20030;-77
2021/06/07 08:22:09;;;;;;;7.28;5.68;;;26.20;59.20;;;;;;4957828;28;20367;-78
2021/06/07 08:24:36;;;;;;;7.47;5.80;;;26.40;59.10;;;;;;4957651;28;20019;-77
2021/06/07 08:27:03;;;;;;;6.68;4.72;;;26.60;57.90;;;;;;4958330;28;20129;-77
2021/06/07 08:29:29;;;;;;;5.30;4.28;;;26.60;57.00;;;;;;4957721;28;20019;-76
2021/06/07 08:31:55;;;;;;;6.40;4.70;;;26.70;56.50;;;;;;4958575;28;20371;-77
2021/06/07 08:34:21;;;;;;;5.18;4.22;;;26.70;56.60;;;;;;4958887;28;20074;-80
2021/06/07 08:36:47;;;;;;;5.72;4.00;;;26.90;56.70;;;;;;4958758;28;20058;-77
2021/06/07 08:39:13;;;;;;;6.03;3.85;;;27.20;57.30;;;;;;4958189;28;20027;-76
2021/06/07 08:41:39;;;;;;;5.70;3.92;;;27.60;57.60;;;;;;4958097;28;20494;-75
2021/06/07 08:44:05;;;;;;;5.80;3.78;;;27.90;57.10;;;;;;4956863;29;20034;-78
2021/06/07 08:46:31;;;;;;;31.42;28.08;;;28.30;55.20;;;;;;4952678;28;20486;-78
2021/06/07 08:48:57;;;;;;;6.72;4.97;;;28.70;56.40;;;;;;4950132;29;20023;-77
2021/06/07 08:51:24;;;;;;;6.55;3.72;;;29.10;54.80;;;;;;4944274;29;20031;-76
2021/06/07 08:53:51;;;;;;;4.60;3.60;;;29.60;56.00;;;;;;4958237;28;20027;-76
2021/06/07 08:56:17;;;;;;;6.03;3.97;;;30.00;55.90;;;;;;4958592;28;20486;-76
2021/06/07 08:58:47;;;;;;;8.30;4.00;;;30.40;55.00;;;;;;4958502;28;20390;-76
2021/06/07 09:01:12;;;;;;;4.57;3.22;;;30.90;53.10;;;;;;4959113;28;20035;-76
2021/06/07 09:03:38;;;;;;;5.30;3.53;;;31.30;53.00;;;;;;4958539;28;20035;-76
2021/06/07 09:06:05;;;;;;;5.15;3.80;;;31.70;53.20;;;;;;4958572;28;20090;-76
2021/06/07 09:08:36;;;;;;;5.47;3.17;;;32.10;50.60;;;;;;4958248;28;20023;-76
2021/06/07 09:11:13;;;;;;;;;;;32.40;51.30;;;;;;4959366;28;20035;-76
2021/06/07 09:13:39;;;;;;;5.95;3.13;;;32.80;49.70;;;;;;4958497;28;19954;-77
2021/06/07 09:16:06;;;;;;;4.22;2.55;;;33.10;47.90;;;;;;4958479;29;20061;-78
2021/06/07 09:18:35;;;;;;;5.07;3.53;;;33.30;47.90;;;;;;4954659;28;20070;-77
2021/06/07 09:21:12;;;;;;;5.85;3.22;;;33.50;48.90;;;;;;4950053;29;20023;-78
2021/06/07 09:23:48;;;;;;;5.97;4.00;;;33.80;49.00;;;;;;4948039;28;20020;-76
2021/06/07 09:26:30;;;;;;;5.03;2.80;;;34.10;49.70;;;;;;4956955;29;20031;-78
2021/06/07 09:28:58;;;;;;;4.03;2.92;;;34.40;47.30;;;;;;4958276;28;20035;-76
2021/06/07 09:31:38;;;;;;;5.90;3.38;;;34.20;46.60;;;;;;4958428;28;20393;-75
2021/06/07 09:34:07;;;;;;;6.03;3.30;;;33.90;47.30;;;;;;4948150;28;20474;-75
2021/06/07 09:36:38;;;;;;;4.40;2.90;;;34.10;48.50;;;;;;4962046;28;20474;-74
2021/06/07 09:39:15;;;;;;;3.80;2.35;;;34.40;47.50;;;;;;4961507;28;20027;-74
2021/06/07 09:41:50;;;;;;;5.63;2.97;;;34.80;47.40;;;;;;4962021;28;20023;-74
2021/06/07 09:44:37;;;;;;;7.22;3.97;;;35.20;47.10;;;;;;4950540;29;20078;-75
2021/06/07 09:47:11;;;;;;;5.75;3.63;;;35.60;45.80;;;;;;4959391;28;20038;-71
2021/06/07 09:49:52;;;;;;;5.30;3.25;;;36.00;46.00;;;;;;4955076;29;20023;-68
2021/06/07 09:52:21;;;;;;;5.47;2.83;;;36.00;42.70;;;;;;4948518;29;20027;-70
2021/06/07 09:55:00;;;;;;;5.78;2.80;;;35.50;41.70;;;;;;4961153;29;20407;-69
2021/06/07 09:57:43;;;;;;;5.63;3.10;;;35.20;44.10;;;;;;4957169;28;21430;-71
2021/06/07 10:00:10;;;;;;;5.30;2.80;;;35.00;44.40;;;;;;4961302;28;20565;-70
2021/06/07 10:02:37;;;;;;;5.00;3.30;;;35.10;44.60;;;;;;4961447;28;20020;-70
2021/06/07 10:05:04;;;;;;;4.93;2.78;;;35.10;44.50;;;;;;4960700;28;20106;-71
2021/06/07 10:07:30;;;;;;;6.00;3.35;;;34.80;43.40;;;;;;4952209;28;20087;-71
2021/06/07 10:10:11;;;;;;;5.03;2.67;;;34.20;43.50;;;;;;4959610;28;20086;-69
2021/06/07 10:12:41;;;;;;;6.67;3.07;;;34.00;44.80;;;;;;4950632;28;20046;-69
2021/06/07 10:15:12;;;;;;;5.93;2.95;;;34.30;45.00;;;;;;4959498;29;20082;-67
2021/06/07 10:17:38;;;;;;;25.80;23.25;;;34.80;45.60;;;;;;4960534;28;20019;-69
2021/06/07 10:22:37;;;;;;;5.05;2.92;;;35.90;45.70;;;;;;4959798;28;20058;-71
2021/06/07 10:25:07;;;;;;;3.95;2.17;;;36.60;45.00;;;;;;4954978;28;20586;-69
2021/06/07 10:27:33;;;;;;;4.35;2.20;;;37.20;43.00;;;;;;4953717;29;20038;-71
2021/06/07 10:29:59;;;;;;;4.35;2.17;;;37.80;43.10;;;;;;4960670;28;20129;-70
2021/06/07 10:32:29;;;;;;;5.80;2.63;;;38.30;43.30;;;;;;4960923;28;20038;-69
2021/06/07 10:35:02;;;;;;;4.90;2.90;;;38.70;42.70;;;;;;4960717;28;20082;-70
2021/06/07 10:37:31;;;;;;;4.47;2.10;;;39.10;41.20;;;;;;4960932;28;20396;-70
2021/06/07 10:40:16;;;;;;;4.20;2.10;;;39.20;36.70;;;;;;4960345;28;20047;-70
2021/06/07 10:42:54;;;;;;;6.05;2.80;;;38.50;37.90;;;;;;4960821;28;20036;-70
2021/06/07 10:45:26;;;;;;;4.18;2.03;;;37.70;38.60;;;;;;4960653;28;20027;-70
2021/06/07 10:47:52;;;;;;;5.03;2.75;;;37.30;40.40;;;;;;4954504;28;20065;-68
2021/06/07 10:50:24;;;;;;;5.43;2.53;;;37.40;42.00;;;;;;4951326;29;20023;-68
2021/06/07 10:52:54;;;;;;;3.83;2.00;;;37.70;42.70;;;;;;4957422;29;20038;-68
2021/06/07 10:55:32;;;;;;;5.30;2.15;;;37.90;40.90;;;;;;4959877;28;20031;-68
2021/06/07 10:57:59;;;;;;;5.97;2.55;;;38.10;42.80;;;;;;4959634;28;20027;-69
2021/06/07 11:00:38;;;;;;;4.78;2.10;;;38.40;41.90;;;;;;4960540;28;20404;-68
2021/06/07 11:03:17;;;;;;;5.28;2.22;;;38.20;41.00;;;;;;4949524;29;20057;-69
2021/06/07 11:05:45;;;;;;;4.78;1.90;;;38.10;40.90;;;;;;4960419;29;20030;-70
2021/06/07 11:08:15;;;;;;;4.45;2.00;;;38.20;41.50;;;;;;4960395;28;20094;-68
2021/06/07 11:10:43;;;;;;;4.15;1.85;;;38.20;40.30;;;;;;4960152;28;20497;-68
2021/06/07 11:13:09;;;;;;;4.22;1.98;;;38.00;39.40;;;;;;4960374;28;20027;-69
2021/06/07 11:15:56;;;;;;;5.57;2.28;;;37.40;37.50;;;;;;4960109;28;20035;-69
2021/06/07 11:18:28;;;;;;;3.30;1.80;;;36.70;37.10;;;;;;4960223;28;20390;-69
2021/06/07 11:21:08;;;;;;;5.18;1.88;;;35.80;38.10;;;;;;4960371;28;20496;-69
2021/06/07 11:23:35;;;;;;;4.78;2.00;;;35.10;39.30;;;;;;4950129;29;20039;-68
2021/06/07 11:26:03;;;;;;;5.28;2.60;;;34.50;39.20;;;;;;4957169;29;20033;-69
2021/06/07 11:28:47;;;;;;;6.57;3.05;;;34.00;40.00;;;;;;4959737;28;20035;-71
2021/06/07 11:31:19;;;;;;;5.40;2.30;;;33.60;40.40;;;;;;4947184;29;20485;-73
2021/06/07 11:33:56;;;;;;;4.00;1.80;;;33.30;41.20;;;;;;4958356;29;20042;-74
2021/06/07 11:37:00;;;;;;;4.47;1.50;;;33.30;41.70;;;;;;4960032;28;20027;-76
2021/06/07 11:39:44;;;;;;;4.60;1.70;;;33.30;39.70;;;;;;4944219;28;20042;-75
2021/06/07 11:42:15;;;;;;;4.35;1.90;;;33.60;41.20;;;;;;4958266;29;20086;-76
2021/06/07 11:44:44;;;;;;;17.35;13.20;;;34.10;40.10;;;;;;4959850;28;20565;-76
2021/06/07 11:47:18;;;;;;;9.48;8.45;;;34.30;40.90;;;;;;4954853;29;20039;-72
2021/06/07 11:49:56;;;;;;;5.25;1.83;;;34.40;40.10;;;;;;4941621;29;20107;-76
2021/06/07 11:52:31;;;;;;;4.85;1.70;;;34.40;40.00;;;;;;4946763;29;20400;-74
2021/06/07 11:54:59;;;;;;;5.05;1.80;;;34.50;39.10;;;;;;4956467;28;20027;-74
2021/06/07 11:57:26;;;;;;;3.63;1.25;;;34.60;40.30;;;;;;4958598;28;20047;-74
2021/06/07 11:59:59;;;;;;;3.58;1.65;;;34.60;39.70;;;;;;4959018;29;20019;-74
2021/06/07 12:02:27;;;;;;;4.45;1.60;;;34.40;40.30;;;;;;4959554;28;20111;-74
2021/06/07 12:04:54;;;;;;;4.18;1.50;;;34.20;38.60;;;;;;4957960;29;20057;-74
2021/06/07 12:07:21;;;;;;;2.67;1.25;;;33.80;40.00;;;;;;4959534;28;20482;-73
2021/06/07 12:09:58;;;;;;;3.70;1.65;;;33.60;40.40;;;;;;4958869;28;20027;-73
2021/06/07 12:12:27;;;;;;;4.13;1.35;;;33.40;40.10;;;;;;4959295;28;20039;-73
2021/06/07 12:14:54;;;;;;;4.25;1.85;;;33.20;41.50;;;;;;4947159;29;20027;-73
2021/06/07 12:17:23;;;;;;;6.00;1.40;;;33.00;40.40;;;;;;4959214;28;20027;-73
2021/06/07 12:19:49;;;;;;;2.50;1.02;;;32.80;40.30;;;;;;4959347;28;20023;-73
2021/06/07 12:22:39;;;;;;;3.90;1.60;;;32.60;40.80;;;;;;4957944;28;20031;-73
2021/06/07 12:25:27;;;;;;;5.63;1.63;;;32.40;41.80;;;;;;4948719;29;20493;-73
2021/06/07 12:30:45;;;;;;;5.90;1.63;;;32.00;41.00;;;;;;4959189;29;20552;-73
2021/06/07 12:33:10;;;;;;;4.07;1.33;;;31.70;41.10;;;;;;4959464;28;20042;-73
2021/06/07 12:35:38;;;;;;;4.05;1.70;;;31.40;39.90;;;;;;4958935;28;20413;-73
2021/06/07 12:38:05;;;;;;;4.03;1.73;;;31.10;40.20;;;;;;4958947;28;20059;-73
2021/06/07 12:40:43;;;;;;;3.20;1.75;;;30.90;41.00;;;;;;4958610;28;20522;-73
2021/06/07 12:43:08;;;;;;;3.33;1.60;;;30.70;41.60;;;;;;4959040;28;20034;-73
2021/06/07 12:45:36;;;;;;;5.45;2.00;;;30.50;41.20;;;;;;4958846;29;20098;-73
2021/06/07 12:48:15;;;;;;;2.90;1.48;;;30.40;41.90;;;;;;4948607;28;20364;-73
2021/06/07 12:50:44;;;;;;;4.18;1.83;;;30.20;42.20;;;;;;4946480;29;20031;-73
2021/06/07 12:53:10;;;;;;;5.18;1.90;;;30.10;42.00;;;;;;4958756;28;20031;-73
2021/06/07 12:55:38;;;;;;;3.75;1.73;;;30.10;42.80;;;;;;4958850;28;20031;-73
2021/06/07 12:58:19;;;;;;;5.25;2.30;;;30.00;41.80;;;;;;4958758;28;20051;-73